createdAt,value
2019-04-23T00:01:26.812Z,11.13
2019-04-23T00:04:00.953Z,11.47
2019-04-23T00:06:19.003Z,12.13
2019-04-23T00:08:50.123Z,12.07
2019-04-23T00:11:17.205Z,12.13
2019-04-23T00:13:44.219Z,12.97
2019-04-23T00:16:12.926Z,13.17
2019-04-23T00:18:42.243Z,12.57
2019-04-23T00:21:13.811Z,13.33
2019-04-23T00:23:49.784Z,11.50
2019-04-23T00:26:18.867Z,11.97
2019-04-23T00:28:40.892Z,11.17
2019-04-23T00:31:13.735Z,12.77
2019-04-23T00:33:36.064Z,12.80
2019-04-23T00:36:10.286Z,12.53
2019-04-23T00:38:40.229Z,13.20
2019-04-23T00:41:02.863Z,12.07
2019-04-23T00:43:32.876Z,12.67
2019-04-23T00:45:59.672Z,12.10
2019-04-23T00:48:44.005Z,13.23
2019-04-23T00:50:58.256Z,13.17
2019-04-23T00:53:27.007Z,12.23
2019-04-23T01:03:21.552Z,14.37
2019-04-23T01:05:52.636Z,13.93
2019-04-23T01:08:26.386Z,14.33
2019-04-23T01:11:01.840Z,14.20
2019-04-23T01:20:52.979Z,14.40
2019-04-23T01:23:11.575Z,15.03
2019-04-23T01:25:52.332Z,14.47
2019-04-23T01:28:43.565Z,14.93
2019-04-23T01:31:11.480Z,14.87
2019-04-23T01:33:37.982Z,14.60
2019-04-23T01:36:16.469Z,14.50
2019-04-23T01:38:41.822Z,15.63
2019-04-23T01:41:07.809Z,15.37
2019-04-23T01:43:30.713Z,13.77
2019-04-23T01:45:54.472Z,14.40
2019-04-23T01:48:30.016Z,14.33
2019-04-23T01:50:57.500Z,13.33
2019-04-23T01:53:30.082Z,15.47
2019-04-23T01:55:54.435Z,13.47
2019-04-23T01:58:37.029Z,14.93
2019-04-23T02:03:21.471Z,13.43
2019-04-23T02:05:48.327Z,13.53
2019-04-23T02:08:15.655Z,13.03
2019-04-23T02:13:16.680Z,13.40
2019-04-23T02:15:45.945Z,12.20
2019-04-23T02:18:13.644Z,13.80
2019-04-23T02:20:44.376Z,13.27
2019-04-23T02:23:21.632Z,13.60
2019-04-23T02:33:31.761Z,13.47
2019-04-23T02:38:18.843Z,13.77
2019-04-23T02:40:56.016Z,13.73
2019-04-23T02:43:13.023Z,13.47
2019-04-23T02:45:52.100Z,13.90
2019-04-23T02:50:47.955Z,14.20
2019-04-23T02:53:20.194Z,14.20
2019-04-23T02:55:50.134Z,14.50
2019-04-23T03:03:06.075Z,14.80
2019-04-23T03:05:26.342Z,14.33
2019-04-23T03:13:01.645Z,16.27
2019-04-23T03:15:39.769Z,14.20
2019-04-23T03:18:21.119Z,14.93
2019-04-23T03:25:36.310Z,16.40
2019-04-23T03:28:23.255Z,15.43
2019-04-23T03:31:57.901Z,15.90
2019-04-23T03:38:23.491Z,14.97
2019-04-23T03:40:39.662Z,15.63
2019-04-23T03:43:19.419Z,15.67
2019-04-23T03:45:53.432Z,15.40
2019-04-23T03:48:22.236Z,16.10
2019-04-23T03:53:05.177Z,16.63
2019-04-23T03:58:05.212Z,16.17
2019-04-23T04:00:45.904Z,15.60
2019-04-23T04:03:55.194Z,16.40
2019-04-23T04:05:40.044Z,16.67
2019-04-23T04:10:25.636Z,14.80
2019-04-23T04:12:46.065Z,16.90
2019-04-23T04:15:41.312Z,15.73
2019-04-23T04:18:03.944Z,16.23
2019-04-23T04:20:28.954Z,17.57
2019-04-23T04:25:27.098Z,15.13
2019-04-23T04:27:58.155Z,18.13
2019-04-23T04:30:18.664Z,18.27
2019-04-23T04:32:54.468Z,19.40
2019-04-23T04:35:18.323Z,17.63
2019-04-23T04:40:11.149Z,19.07
2019-04-23T04:42:39.552Z,18.10
2019-04-23T04:45:14.176Z,17.47
2019-04-23T04:47:35.423Z,20.47
2019-04-23T04:50:00.220Z,19.80
2019-04-23T04:52:48.789Z,19.10
2019-04-23T04:54:55.865Z,20.03
2019-04-23T04:57:36.680Z,21.67
2019-04-23T05:00:08.347Z,21.33
2019-04-23T05:05:01.547Z,20.27
2019-04-23T05:07:30.384Z,19.33
2019-04-23T05:13:13.883Z,21.57
2019-04-23T05:14:54.555Z,19.43
2019-04-23T05:17:24.456Z,18.73
2019-04-23T05:22:18.255Z,19.07
2019-04-23T05:24:43.308Z,20.10
2019-04-23T05:27:28.951Z,20.60
2019-04-23T05:29:41.473Z,20.07
2019-04-23T05:32:07.573Z,20.87
2019-04-23T05:34:37.441Z,21.30
2019-04-23T05:37:06.212Z,19.73
2019-04-23T05:39:36.851Z,20.97
2019-04-23T05:42:00.604Z,18.50
2019-04-23T05:44:38.716Z,18.37
2019-04-23T05:47:01.012Z,16.20
2019-04-23T05:49:26.192Z,16.40
2019-04-23T05:52:02.177Z,16.50
2019-04-23T05:54:32.295Z,15.83
2019-04-23T05:56:53.949Z,15.30
2019-04-23T05:59:23.082Z,14.97
2019-04-23T06:11:55.517Z,13.33
2019-04-23T06:16:55.270Z,10.53
2019-04-23T06:19:15.791Z,11.63
2019-04-23T06:21:54.881Z,10.60
2019-04-23T06:24:16.569Z,11.10
2019-04-23T06:26:53.522Z,11.07
2019-04-23T06:29:16.017Z,10.30
2019-04-23T06:31:38.014Z,10.93
2019-04-23T06:34:03.817Z,10.23
2019-04-23T06:36:32.636Z,9.60
2019-04-23T06:38:57.066Z,10.07
2019-04-23T06:41:30.981Z,10.03
2019-04-23T06:46:41.104Z,9.80
2019-04-23T06:49:02.109Z,9.33
2019-04-23T06:51:34.930Z,9.47
2019-04-23T06:54:00.016Z,8.47
2019-04-23T06:58:51.096Z,7.97
2019-04-23T07:01:19.201Z,8.43
2019-04-23T07:03:54.825Z,7.87
2019-04-23T07:06:26.626Z,8.33
2019-04-23T07:09:05.702Z,9.17
2019-04-23T07:11:28.718Z,8.63
2019-04-23T07:18:41.598Z,9.00
2019-04-23T07:21:15.399Z,7.50
2019-04-23T07:23:45.432Z,8.73
2019-04-23T07:26:24.340Z,7.60
2019-04-23T07:28:48.578Z,7.43
2019-04-23T07:31:14.280Z,8.40
2019-04-23T07:33:41.721Z,7.03
2019-04-23T07:36:03.890Z,7.73
2019-04-23T07:38:55.016Z,7.60
2019-04-23T07:41:32.215Z,7.17
2019-04-23T07:44:07.805Z,6.50
2019-04-23T07:47:03.325Z,7.30
2019-04-23T07:49:17.937Z,6.43
2019-04-23T07:52:01.150Z,6.73
2019-04-23T07:54:17.574Z,6.30
2019-04-23T07:56:41.934Z,6.47
2019-04-23T07:59:19.427Z,6.70
2019-04-23T08:01:44.770Z,6.50
2019-04-23T08:04:08.833Z,7.13
2019-04-23T08:06:38.616Z,6.20
2019-04-23T08:09:03.564Z,6.13
2019-04-23T08:11:40.068Z,6.07
2019-04-23T08:16:33.612Z,5.60
2019-04-23T08:21:27.695Z,6.33
2019-04-23T08:24:08.747Z,5.47
2019-04-23T08:26:50.951Z,6.43
2019-04-23T08:29:13.912Z,6.73
2019-04-23T08:31:52.485Z,5.80
2019-04-23T08:34:28.539Z,5.50
2019-04-23T08:39:13.286Z,5.60
2019-04-23T08:42:11.004Z,6.23
2019-04-23T08:44:16.793Z,5.87
2019-04-23T08:46:56.862Z,5.80
2019-04-23T08:49:22.154Z,5.43
2019-04-23T08:52:02.474Z,5.43
2019-04-23T08:54:25.294Z,6.00
2019-04-23T08:56:47.984Z,5.90
2019-04-23T08:59:19.787Z,5.60
2019-04-23T09:01:50.721Z,5.83
2019-04-23T09:04:09.819Z,6.17
2019-04-23T09:06:35.374Z,5.70
2019-04-23T09:09:06.441Z,5.80
2019-04-23T09:19:04.000Z,5.93
2019-04-23T09:21:27.479Z,7.93
2019-04-23T09:26:22.472Z,6.33
2019-04-23T09:28:56.765Z,6.80
2019-04-23T09:31:57.081Z,6.87
2019-04-23T09:34:07.544Z,5.87
2019-04-23T09:36:45.314Z,6.80
2019-04-23T09:39:12.719Z,6.00
2019-04-23T09:41:48.371Z,7.00
2019-04-23T09:45:28.242Z,6.87
2019-04-23T09:48:04.570Z,7.07
2019-04-23T09:50:33.454Z,6.83
2019-04-23T09:53:06.451Z,6.87
2019-04-23T09:55:27.480Z,6.93
2019-04-23T09:58:00.131Z,6.03
2019-04-23T10:02:41.153Z,6.97
2019-04-23T10:05:04.469Z,7.37
2019-04-23T10:07:30.055Z,6.70
2019-04-23T10:09:49.793Z,7.53
2019-04-23T10:12:17.717Z,6.90
2019-04-23T10:14:53.910Z,8.23
2019-04-23T10:17:15.926Z,8.33
2019-04-23T10:19:42.804Z,7.47
2019-04-23T10:22:11.453Z,7.80
2019-04-23T10:24:41.055Z,7.37
2019-04-23T10:27:08.407Z,8.10
2019-04-23T10:29:38.449Z,7.43
2019-04-23T10:32:07.598Z,8.10
2019-04-23T10:34:47.574Z,7.17
2019-04-23T10:37:05.266Z,7.90
2019-04-23T10:39:37.859Z,8.10
2019-04-23T10:42:03.277Z,7.10
2019-04-23T10:44:35.285Z,7.90
2019-04-23T10:47:47.777Z,8.63
2019-04-23T10:50:05.519Z,7.60
2019-04-23T10:55:27.163Z,7.90
2019-04-23T10:57:46.189Z,7.40
2019-04-23T10:59:53.913Z,7.67
2019-04-23T11:02:40.297Z,8.47
2019-04-23T11:05:08.799Z,7.90
2019-04-23T11:07:32.458Z,8.13
2019-04-23T11:10:05.578Z,8.03
2019-04-23T11:25:15.934Z,7.87
2019-04-23T11:32:47.082Z,6.20
2019-04-23T11:35:18.201Z,7.93
2019-04-23T11:37:39.276Z,7.43
2019-04-23T11:40:01.296Z,7.20
2019-04-23T11:44:56.057Z,8.07
2019-04-23T11:48:04.075Z,7.33
2019-04-23T11:49:52.619Z,7.80
2019-04-23T11:52:29.093Z,8.00
2019-04-23T11:54:43.621Z,8.03
2019-04-23T11:57:32.581Z,7.83
2019-04-23T12:02:22.029Z,6.73
2019-04-23T12:05:22.521Z,6.43
2019-04-23T12:07:39.858Z,6.97
2019-04-23T12:10:29.184Z,7.57
2019-04-23T12:13:10.423Z,7.80
2019-04-23T12:15:18.075Z,6.70
2019-04-23T12:22:55.500Z,7.40
2019-04-23T12:27:33.433Z,7.27
2019-04-23T12:32:48.773Z,7.33
2019-04-23T12:37:41.457Z,7.80
2019-04-23T12:40:15.358Z,7.70
2019-04-23T12:45:17.941Z,7.77
2019-04-23T12:47:53.718Z,7.63
2019-04-23T12:52:40.680Z,7.43
2019-04-23T12:55:06.834Z,7.33
2019-04-23T12:57:34.399Z,8.07
2019-04-23T12:59:58.271Z,7.43
2019-04-23T13:05:00.275Z,6.87
2019-04-23T13:07:34.496Z,5.40
2019-04-23T13:12:29.279Z,6.30
2019-04-23T13:22:23.988Z,6.43
2019-04-23T13:24:48.982Z,6.37
2019-04-23T13:27:30.696Z,7.97
2019-04-23T13:29:51.876Z,6.80
2019-04-23T13:32:22.028Z,5.97
2019-04-23T13:34:48.506Z,6.33
2019-04-23T13:37:27.364Z,6.77
2019-04-23T13:39:43.885Z,6.60
2019-04-23T13:42:20.027Z,6.77
2019-04-23T13:44:42.657Z,6.67
2019-04-23T13:47:14.993Z,6.27
2019-04-23T13:49:39.657Z,6.00
2019-04-23T13:52:06.023Z,6.17
2019-04-23T13:59:39.193Z,6.70
2019-04-23T14:01:55.747Z,6.37
2019-04-23T14:04:41.806Z,7.07
2019-04-23T14:09:39.504Z,6.67
2019-04-23T14:11:51.220Z,6.80
2019-04-23T14:14:47.825Z,6.60
2019-04-23T14:17:00.152Z,6.80
2019-04-23T14:19:16.245Z,6.17
2019-04-23T14:21:51.669Z,6.20
2019-04-23T14:24:45.511Z,6.27
2019-04-23T14:26:50.595Z,5.83
2019-04-23T14:29:22.941Z,6.40
2019-04-23T14:31:56.839Z,6.33
2019-04-23T14:36:52.126Z,5.50
2019-04-23T14:39:22.283Z,6.77
2019-04-23T14:41:42.506Z,5.37
2019-04-23T14:44:31.308Z,5.23
2019-04-23T14:49:14.272Z,5.50
2019-04-23T14:54:15.743Z,5.10
2019-04-23T14:56:47.792Z,5.87
2019-04-23T14:59:07.816Z,6.20
2019-04-23T15:04:01.612Z,6.03
2019-04-23T15:11:44.187Z,6.47
2019-04-23T15:14:06.038Z,6.57
2019-04-23T15:16:31.695Z,5.93
2019-04-23T15:19:20.020Z,6.60
2019-04-23T15:24:15.947Z,6.33
2019-04-23T15:28:43.592Z,6.43
2019-04-23T15:31:40.184Z,6.60
2019-04-23T15:34:07.542Z,6.33
2019-04-23T15:41:31.990Z,6.17
2019-04-23T15:46:32.678Z,6.77
2019-04-23T15:49:01.419Z,6.50
2019-04-23T15:51:28.269Z,6.50
2019-04-23T15:53:48.598Z,7.07
2019-04-23T15:56:28.950Z,7.37
2019-04-23T15:59:13.705Z,6.17
2019-04-23T16:01:21.173Z,5.87
2019-04-23T16:03:19.806Z,6.40
2019-04-23T16:05:46.700Z,6.30
2019-04-23T16:08:51.339Z,6.80
2019-04-23T16:11:19.672Z,6.37
2019-04-23T16:13:53.394Z,6.60
2019-04-23T16:16:17.724Z,6.37
2019-04-23T16:18:42.183Z,6.87
2019-04-23T16:21:27.406Z,7.10
2019-04-23T16:23:45.922Z,6.70
2019-04-23T16:26:08.716Z,7.07
2019-04-23T16:29:00.280Z,6.97
2019-04-23T16:31:12.971Z,7.10
2019-04-23T16:33:30.245Z,7.93
2019-04-23T16:36:17.953Z,6.73
2019-04-23T16:38:56.522Z,6.97
2019-04-23T16:41:07.915Z,6.60
2019-04-23T16:43:33.739Z,6.17
2019-04-23T16:46:07.260Z,6.27
2019-04-23T16:53:25.149Z,6.13
2019-04-23T16:56:06.895Z,6.13
2019-04-23T16:58:42.117Z,6.73
2019-04-23T17:03:29.047Z,6.87
2019-04-23T17:05:57.810Z,6.80
2019-04-23T17:10:53.296Z,6.40
2019-04-23T17:13:24.060Z,6.73
2019-04-23T17:15:53.339Z,6.40
2019-04-23T17:18:17.260Z,6.53
2019-04-23T17:20:46.775Z,6.60
2019-04-23T17:23:19.304Z,7.40
2019-04-23T17:25:41.676Z,6.37
2019-04-23T17:28:12.763Z,7.00
2019-04-23T17:33:22.419Z,6.30
2019-04-23T17:35:56.129Z,6.60
2019-04-23T17:38:37.902Z,7.20
2019-04-23T17:40:50.678Z,6.83
2019-04-23T17:43:14.644Z,6.77
2019-04-23T17:45:57.160Z,7.40
2019-04-23T17:48:22.174Z,7.10
2019-04-23T17:50:58.456Z,6.73
2019-04-23T17:56:01.074Z,6.97
2019-04-23T17:58:26.584Z,6.40
2019-04-23T18:00:57.281Z,7.47
2019-04-23T18:03:13.035Z,7.70
2019-04-23T18:05:52.213Z,7.30
2019-04-23T18:08:11.271Z,7.60
2019-04-23T18:10:47.717Z,6.90
2019-04-23T18:13:08.867Z,6.87
2019-04-23T18:15:41.536Z,7.50
2019-04-23T18:18:13.603Z,7.63
2019-04-23T18:20:36.899Z,7.30
2019-04-23T18:23:06.630Z,7.40
2019-04-23T18:25:43.634Z,7.77
2019-04-23T18:28:19.079Z,8.03
2019-04-23T18:30:52.838Z,6.83
2019-04-23T18:33:49.386Z,7.13
2019-04-23T18:35:45.644Z,7.10
2019-04-23T18:38:18.719Z,7.07
2019-04-23T18:40:59.251Z,8.37
2019-04-23T18:43:23.065Z,6.60
2019-04-23T18:45:45.124Z,7.83
2019-04-23T18:48:31.492Z,8.10
2019-04-23T18:51:00.360Z,7.83
2019-04-23T18:53:09.725Z,7.93
2019-04-23T18:55:54.349Z,8.63
2019-04-23T18:58:03.936Z,7.77
2019-04-23T19:00:58.263Z,7.60
2019-04-23T19:03:23.132Z,8.53
2019-04-23T19:06:01.093Z,8.03
2019-04-23T19:08:51.552Z,8.17
2019-04-23T19:10:57.399Z,8.50
2019-04-23T19:13:38.563Z,7.40
2019-04-23T19:15:50.555Z,7.90
2019-04-23T19:18:26.651Z,8.10
2019-04-23T19:21:02.297Z,7.83
2019-04-23T19:25:50.151Z,7.60
2019-04-23T19:28:36.153Z,8.03
2019-04-23T19:31:04.975Z,8.50
2019-04-23T19:33:50.877Z,8.17
2019-04-23T19:38:26.531Z,8.47
2019-04-23T19:43:25.183Z,8.23
2019-04-23T19:45:56.729Z,7.53
2019-04-23T19:53:33.074Z,8.17
2019-04-23T19:56:00.226Z,8.33
2019-04-23T20:01:10.293Z,9.00
2019-04-23T20:05:41.088Z,8.73
2019-04-23T20:08:16.774Z,8.30
2019-04-23T20:10:39.263Z,9.07
2019-04-23T20:12:59.147Z,8.50
2019-04-23T20:15:41.140Z,8.37
2019-04-23T20:18:01.080Z,8.53
2019-04-23T20:20:35.382Z,8.73
2019-04-23T20:25:58.470Z,8.10
2019-04-23T20:28:01.952Z,7.67
2019-04-23T20:30:46.962Z,8.03
2019-04-23T20:35:52.417Z,8.83
2019-04-23T20:38:27.452Z,8.60
2019-04-23T20:40:48.428Z,8.93
2019-04-23T20:43:07.409Z,8.50
2019-04-23T20:45:50.861Z,9.20
2019-04-23T20:48:04.819Z,8.20
2019-04-23T20:50:37.633Z,7.90
2019-04-23T20:53:01.350Z,8.10
2019-04-23T20:55:49.653Z,8.43
2019-04-23T20:57:55.274Z,8.37
2019-04-23T21:00:45.794Z,8.43
2019-04-23T21:03:25.881Z,8.33
2019-04-23T21:05:38.983Z,10.20
2019-04-23T21:10:36.926Z,8.53
2019-04-23T21:13:15.189Z,8.47
2019-04-23T21:15:39.021Z,9.10
2019-04-23T21:23:06.303Z,8.17
2019-04-23T21:25:30.498Z,8.63
2019-04-23T21:28:20.779Z,8.73
2019-04-23T21:30:53.666Z,8.40
2019-04-23T21:33:04.875Z,8.27
2019-04-23T21:35:46.348Z,8.80
2019-04-23T21:38:29.761Z,9.30
2019-04-23T21:41:00.163Z,8.57
2019-04-23T21:43:32.954Z,9.17
2019-04-23T21:48:33.866Z,9.30
2019-04-23T21:53:18.472Z,8.93
2019-04-23T21:55:54.400Z,9.40
2019-04-23T21:58:17.274Z,9.43
2019-04-23T22:00:53.529Z,9.13
2019-04-23T22:05:44.031Z,8.93
2019-04-23T22:08:08.349Z,8.97
2019-04-23T22:10:32.304Z,9.13
2019-04-23T22:15:46.515Z,9.43
2019-04-23T22:17:59.369Z,9.63
2019-04-23T22:20:34.781Z,9.10
2019-04-23T22:25:37.735Z,8.83
2019-04-23T22:28:08.314Z,9.47
2019-04-23T22:30:36.221Z,9.00
2019-04-23T22:33:02.647Z,9.70
2019-04-23T22:35:24.348Z,9.00
2019-04-23T22:37:59.002Z,9.63
2019-04-23T22:40:18.158Z,8.87
2019-04-23T22:47:47.957Z,8.80
2019-04-23T22:50:12.635Z,9.23
2019-04-23T22:57:56.480Z,9.50
2019-04-23T23:00:16.671Z,8.80
2019-04-23T23:03:13.323Z,10.00
2019-04-23T23:05:56.441Z,8.07
2019-04-23T23:10:47.836Z,9.37
2019-04-23T23:13:13.802Z,9.57
2019-04-23T23:15:44.940Z,9.57
2019-04-23T23:20:36.189Z,8.70
2019-04-23T23:25:33.413Z,10.00
2019-04-23T23:28:06.250Z,9.13
2019-04-23T23:30:38.826Z,9.43
2019-04-23T23:33:06.975Z,10.20
2019-04-23T23:38:02.585Z,9.83
2019-04-23T23:40:25.623Z,10.00
2019-04-23T23:43:05.725Z,10.07
2019-04-23T23:47:51.549Z,10.40
2019-04-23T23:50:25.249Z,11.07
2019-04-23T23:52:53.720Z,10.43
2019-04-23T23:55:15.761Z,10.53
2019-04-23T23:57:43.827Z,12.43
